createdAt,value
2023-05-10T00:00:15.861Z,223.99
2023-05-10T00:01:15.870Z,224.18
2023-05-10T00:02:15.919Z,223.01
2023-05-10T00:03:16.002Z,220.01
2023-05-10T00:04:15.956Z,218.65
2023-05-10T00:05:16.002Z,219.59
2023-05-10T00:06:16.011Z,221.44
2023-05-10T00:07:16.044Z,224.64
2023-05-10T00:08:16.052Z,228.08
2023-05-10T00:09:16.057Z,231.71
2023-05-10T00:10:16.270Z,231.53
2023-05-10T00:11:16.117Z,230.75
2023-05-10T00:12:16.159Z,227.78
2023-05-10T00:13:16.254Z,224.16
2023-05-10T00:14:16.241Z,226.92
2023-05-10T00:15:16.293Z,226.59
2023-05-10T00:16:16.350Z,225.07
2023-05-10T00:17:16.406Z,223.37
2023-05-10T00:18:16.390Z,221.41
2023-05-10T00:19:16.411Z,219.85
2023-05-10T00:20:16.560Z,219.05
2023-05-10T00:21:16.494Z,220.73
2023-05-10T00:22:16.567Z,219.95
2023-05-10T00:23:16.641Z,220.04
2023-05-10T00:24:16.647Z,220.77
2023-05-10T00:25:16.733Z,218.41
2023-05-10T00:26:16.747Z,215.78
2023-05-10T00:27:16.794Z,214.25
2023-05-10T00:28:16.828Z,213.39
2023-05-10T00:29:16.893Z,211.80
2023-05-10T00:30:17.039Z,210.84
2023-05-10T00:31:17.040Z,213.28
2023-05-10T00:32:17.151Z,218.08
2023-05-10T00:33:16.974Z,218.97
2023-05-10T00:34:16.988Z,215.96
2023-05-10T00:35:17.010Z,217.35
2023-05-10T00:36:17.032Z,220.43
2023-05-10T00:37:17.058Z,221.93
2023-05-10T00:38:17.070Z,219.22
2023-05-10T00:39:17.058Z,219.62
2023-05-10T00:40:17.336Z,220.25
2023-05-10T00:41:17.179Z,220.56
2023-05-10T00:42:17.185Z,219.39
2023-05-10T00:43:17.219Z,217.31
2023-05-10T00:44:17.233Z,216.22
2023-05-10T00:45:17.256Z,215.21
2023-05-10T00:46:17.321Z,217.68
2023-05-10T00:47:17.290Z,216.74
2023-05-10T00:48:17.361Z,216.90
2023-05-10T00:49:17.329Z,215.42
2023-05-10T00:50:17.599Z,213.51
2023-05-10T00:51:17.384Z,214.96
2023-05-10T00:52:17.441Z,217.33
2023-05-10T00:53:17.431Z,220.05
2023-05-10T00:54:17.424Z,219.98
2023-05-10T00:55:17.437Z,217.10
2023-05-10T00:56:17.457Z,216.52
2023-05-10T00:57:17.478Z,217.17
2023-05-10T00:58:17.547Z,217.71
2023-05-10T00:59:17.622Z,217.47
2023-05-10T01:00:17.750Z,217.24
2023-05-10T01:01:17.711Z,213.38
2023-05-10T01:02:17.756Z,213.32
2023-05-10T01:03:17.818Z,212.95
2023-05-10T01:04:17.761Z,213.25
2023-05-10T01:05:17.899Z,214.00
2023-05-10T01:06:17.855Z,214.30
2023-05-10T01:07:17.880Z,218.31
2023-05-10T01:08:17.881Z,222.51
2023-05-10T01:09:17.912Z,223.27
2023-05-10T01:10:18.155Z,222.86
2023-05-10T01:11:17.941Z,222.40
2023-05-10T01:12:18.071Z,227.20
2023-05-10T01:13:18.098Z,227.58
2023-05-10T01:14:18.103Z,226.45
2023-05-10T01:15:18.223Z,230.13
2023-05-10T01:16:18.212Z,230.97
2023-05-10T01:17:18.265Z,228.08
2023-05-10T01:28:51.371Z,25.00
2023-05-10T01:29:58.902Z,25.00
2023-05-10T01:30:52.015Z,25.00
2023-05-10T01:31:51.042Z,25.00
2023-05-10T01:32:51.072Z,25.00
2023-05-10T01:33:51.009Z,25.00
2023-05-10T01:34:50.966Z,25.00
2023-05-10T01:35:51.005Z,7.26
2023-05-10T01:36:50.950Z,0.00
2023-05-10T01:37:50.966Z,0.00
2023-05-10T01:38:50.939Z,0.00
2023-05-10T01:39:50.934Z,29.70
2023-05-10T01:40:50.915Z,85.52
2023-05-10T01:41:50.898Z,96.33
2023-05-10T01:42:50.907Z,70.29
2023-05-10T01:43:50.935Z,88.86
2023-05-10T01:44:50.888Z,129.50
2023-05-10T01:45:50.914Z,177.11
2023-05-10T01:46:50.975Z,228.62
2023-05-10T01:47:51.075Z,251.27
2023-05-10T01:48:51.071Z,250.21
2023-05-10T01:49:51.086Z,250.00
2023-05-10T01:50:51.105Z,233.37
2023-05-10T01:51:51.172Z,243.16
2023-05-10T01:52:51.294Z,250.15
2023-05-10T01:53:51.289Z,249.30
2023-05-10T01:54:51.333Z,244.96
2023-05-10T01:55:51.473Z,241.65
2023-05-10T01:56:51.477Z,244.97
2023-05-10T01:57:51.515Z,245.63
2023-05-10T01:58:51.526Z,240.19
2023-05-10T01:59:51.597Z,233.57
2023-05-10T02:00:51.643Z,238.53
2023-05-10T02:01:51.620Z,241.47
2023-05-10T02:02:51.722Z,239.21
2023-05-10T02:03:51.727Z,243.02
2023-05-10T02:04:51.746Z,239.12
2023-05-10T02:05:51.771Z,214.93
2023-05-10T02:06:51.827Z,174.81
2023-05-10T02:07:51.850Z,160.61
2023-05-10T02:08:51.918Z,107.72
2023-05-10T02:09:51.942Z,87.68
2023-05-10T02:10:52.035Z,88.52
2023-05-10T02:11:52.047Z,76.47
2023-05-10T02:12:52.121Z,69.93
2023-05-10T02:13:52.175Z,77.86
2023-05-10T02:14:52.242Z,81.36
2023-05-10T02:15:52.288Z,88.73
2023-05-10T02:16:52.364Z,92.98
2023-05-10T02:17:52.360Z,95.72
2023-05-10T02:18:52.409Z,118.65
2023-05-10T02:19:52.435Z,134.71
2023-05-10T02:20:52.506Z,130.11
2023-05-10T02:21:52.561Z,88.48
2023-05-10T02:22:52.592Z,48.87
2023-05-10T02:23:52.722Z,22.58
2023-05-10T02:24:52.807Z,37.60
2023-05-10T02:25:52.765Z,54.75
2023-05-10T02:26:52.809Z,57.91
2023-05-10T02:27:52.916Z,60.51
2023-05-10T02:28:52.933Z,66.44
2023-05-10T02:29:52.955Z,68.20
2023-05-10T02:30:52.993Z,76.34
2023-05-10T02:31:53.077Z,66.24
2023-05-10T02:32:53.066Z,64.89
2023-05-10T02:33:53.049Z,72.46
2023-05-10T02:34:53.084Z,84.33
2023-05-10T02:35:53.024Z,85.99
2023-05-10T02:36:53.100Z,110.13
2023-05-10T02:37:53.115Z,79.39
2023-05-10T02:38:53.201Z,62.51
2023-05-10T02:39:53.245Z,68.62
2023-05-10T02:40:53.244Z,74.87
2023-05-10T02:41:53.279Z,80.44
2023-05-10T02:42:53.267Z,93.41
2023-05-10T02:43:53.318Z,90.32
2023-05-10T02:44:53.317Z,81.59
2023-05-10T02:45:53.367Z,80.02
2023-05-10T02:46:53.343Z,96.37
2023-05-10T02:47:53.399Z,96.02
2023-05-10T02:48:54.413Z,102.27
2023-05-10T02:49:53.529Z,103.15
2023-05-10T02:50:53.541Z,93.38
2023-05-10T02:51:53.531Z,85.39
2023-05-10T02:52:53.546Z,67.68
2023-05-10T02:53:54.407Z,62.57
2023-05-10T02:54:53.572Z,62.42
2023-05-10T02:55:53.635Z,74.26
2023-05-10T02:56:53.639Z,86.45
2023-05-10T02:57:53.642Z,83.23
2023-05-10T02:58:53.658Z,71.80
2023-05-10T02:59:53.644Z,80.90
2023-05-10T03:00:53.693Z,87.55
2023-05-10T03:01:53.702Z,65.01
2023-05-10T03:02:53.720Z,60.22
2023-05-10T03:03:53.720Z,24.12
2023-05-10T03:04:53.708Z,14.82
2023-05-10T03:05:53.683Z,25.00
2023-05-10T03:06:53.697Z,35.00
2023-05-10T03:07:53.714Z,41.70
2023-05-10T03:08:53.723Z,56.33
2023-05-10T03:09:53.736Z,61.96
2023-05-10T03:10:53.793Z,60.28
2023-05-10T03:11:53.839Z,61.15
2023-05-10T03:12:53.828Z,58.97
2023-05-10T03:13:53.811Z,53.24
2023-05-10T03:14:53.840Z,41.46
2023-05-10T03:15:53.859Z,35.63
2023-05-10T03:16:53.884Z,24.63
2023-05-10T03:17:53.981Z,25.13
2023-05-10T03:18:54.007Z,43.34
2023-05-10T03:19:53.971Z,61.94
2023-05-10T03:20:53.966Z,99.36
2023-05-10T03:21:54.039Z,118.97
2023-05-10T03:22:54.087Z,124.87
2023-05-10T03:23:54.179Z,133.58
2023-05-10T03:24:54.263Z,128.25
2023-05-10T03:25:54.194Z,126.07
2023-05-10T03:26:54.204Z,133.46
2023-05-10T03:27:54.368Z,138.45
2023-05-10T03:28:54.325Z,144.23
2023-05-10T03:29:54.381Z,141.84
2023-05-10T03:30:54.385Z,142.11
2023-05-10T03:31:54.509Z,129.44
2023-05-10T03:32:54.446Z,113.19
2023-05-10T03:33:54.468Z,97.02
2023-05-10T03:34:54.518Z,104.66
2023-05-10T03:35:54.473Z,96.78
2023-05-10T03:36:54.553Z,87.32
2023-05-10T03:37:54.550Z,86.34
2023-05-10T03:38:54.702Z,87.19
2023-05-10T03:39:54.668Z,73.76
2023-05-10T03:40:54.729Z,80.19
2023-05-10T03:41:54.742Z,87.59
2023-05-10T03:42:54.752Z,83.04
2023-05-10T03:43:55.453Z,82.05
2023-05-10T03:44:54.788Z,82.05
2023-05-10T03:45:54.879Z,67.92
2023-05-10T03:46:54.904Z,58.38
2023-05-10T03:47:55.018Z,63.23
2023-05-10T03:48:54.925Z,66.60
2023-05-10T03:49:54.995Z,70.17
2023-05-10T03:50:55.023Z,75.56
2023-05-10T03:51:55.093Z,70.18
2023-05-10T03:52:55.141Z,67.14
2023-05-10T03:53:55.158Z,61.36
2023-05-10T03:54:55.196Z,63.71
2023-05-10T03:55:55.189Z,60.83
2023-05-10T03:56:55.244Z,46.85
2023-05-10T03:57:55.295Z,25.00
2023-05-10T03:58:55.374Z,25.00
2023-05-10T03:59:55.383Z,35.61
2023-05-10T04:00:55.392Z,71.38
2023-05-10T04:01:55.438Z,84.73
2023-05-10T04:02:55.583Z,60.15
2023-05-10T04:03:56.040Z,29.25
2023-05-10T04:04:55.572Z,26.15
2023-05-10T04:05:55.688Z,21.72
2023-05-10T04:06:55.608Z,8.35
2023-05-10T04:07:55.679Z,21.42
2023-05-10T04:08:55.744Z,32.08
2023-05-10T04:09:55.740Z,55.37
2023-05-10T04:10:55.725Z,66.53
2023-05-10T04:11:55.712Z,64.81
2023-05-10T04:12:55.797Z,62.82
2023-05-10T04:13:55.748Z,63.49
2023-05-10T04:14:55.779Z,20.71
2023-05-10T04:15:55.856Z,0.00
2023-05-10T04:16:55.923Z,0.00
2023-05-10T04:17:55.937Z,0.00
2023-05-10T04:18:55.954Z,0.00
2023-05-10T04:19:55.943Z,5.61
2023-05-10T04:20:55.999Z,17.85
2023-05-10T04:21:56.040Z,43.83
2023-05-10T04:22:56.095Z,58.83
2023-05-10T04:23:56.087Z,74.52
2023-05-10T04:24:56.092Z,86.52
2023-05-10T04:25:56.158Z,79.46
2023-05-10T04:26:57.736Z,72.18
2023-05-10T04:27:56.260Z,56.96
2023-05-10T04:28:56.492Z,0.00
2023-05-10T04:29:56.342Z,0.00
2023-05-10T04:30:56.422Z,0.00
2023-05-10T04:31:56.429Z,0.00
2023-05-10T04:32:56.476Z,20.14
2023-05-10T04:33:56.938Z,33.22
2023-05-10T04:34:56.496Z,43.38
2023-05-10T04:35:56.554Z,38.72
2023-05-10T04:36:56.616Z,43.24
2023-05-10T04:37:56.659Z,49.60
2023-05-10T04:38:56.752Z,40.21
2023-05-10T04:39:56.727Z,34.81
2023-05-10T04:40:56.749Z,40.97
2023-05-10T04:41:56.838Z,63.68
2023-05-10T04:42:56.788Z,70.58
2023-05-10T04:43:56.804Z,73.37
2023-05-10T04:44:56.784Z,80.88
2023-05-10T04:45:56.862Z,83.58
2023-05-10T04:46:56.859Z,83.16
2023-05-10T04:47:56.951Z,84.81
2023-05-10T04:48:56.947Z,73.30
2023-05-10T04:49:56.986Z,71.01
2023-05-10T04:50:57.063Z,83.38
2023-05-10T04:51:57.060Z,101.10
2023-05-10T04:52:57.176Z,101.45
2023-05-10T04:54:05.151Z,99.89
2023-05-10T04:54:58.129Z,93.88
2023-05-10T04:55:57.103Z,91.38
2023-05-10T04:56:57.099Z,96.02
2023-05-10T04:57:57.091Z,101.69
2023-05-10T04:58:57.134Z,101.56
2023-05-10T04:59:57.119Z,104.53
2023-05-10T05:00:57.117Z,115.14
2023-05-10T05:01:57.189Z,119.47
2023-05-10T05:02:57.163Z,115.02
2023-05-10T05:03:57.226Z,116.35
2023-05-10T05:04:57.092Z,117.36
2023-05-10T05:05:57.081Z,116.40
2023-05-10T05:06:57.027Z,112.70
2023-05-10T05:07:57.115Z,119.15
2023-05-10T05:09:00.549Z,135.25
2023-05-10T05:09:57.112Z,147.09
2023-05-10T05:10:57.109Z,146.80
2023-05-10T05:11:57.091Z,153.95
2023-05-10T05:12:57.150Z,144.82
2023-05-10T05:13:57.060Z,132.00
2023-05-10T05:14:57.095Z,140.31
2023-05-10T05:15:57.096Z,164.09
2023-05-10T05:16:57.060Z,170.33
2023-05-10T05:17:57.078Z,158.52
2023-05-10T05:18:57.052Z,159.74
2023-05-10T05:19:57.093Z,159.61
2023-05-10T05:20:57.031Z,156.29
2023-05-10T05:21:57.037Z,156.40
2023-05-10T05:22:57.019Z,160.19
2023-05-10T05:23:57.018Z,151.29
2023-05-10T05:24:57.993Z,139.55
2023-05-10T05:25:57.035Z,147.82
2023-05-10T05:26:57.044Z,140.57
2023-05-10T05:27:57.077Z,142.30
2023-05-10T05:28:57.071Z,146.10
2023-05-10T05:29:56.975Z,145.28
2023-05-10T05:30:57.003Z,139.22
2023-05-10T05:31:56.989Z,140.90
2023-05-10T05:32:57.192Z,140.64
2023-05-10T05:33:57.043Z,138.82
2023-05-10T05:34:57.139Z,124.46
2023-05-10T05:35:56.977Z,120.40
2023-05-10T05:36:56.946Z,114.86
2023-05-10T05:37:56.916Z,111.65
2023-05-10T05:38:56.909Z,114.17
2023-05-10T05:39:56.962Z,92.53
2023-05-10T05:40:56.954Z,83.20
2023-05-10T05:41:56.910Z,93.92
2023-05-10T05:42:56.913Z,102.69
2023-05-10T05:43:56.872Z,98.78
2023-05-10T05:44:56.892Z,100.92
2023-05-10T05:45:56.900Z,99.90
2023-05-10T05:46:56.853Z,99.10
2023-05-10T05:47:56.907Z,103.94
2023-05-10T05:48:56.865Z,103.37
2023-05-10T05:49:56.874Z,108.64
2023-05-10T05:50:56.861Z,111.78
2023-05-10T05:51:56.810Z,123.44
2023-05-10T05:52:56.814Z,144.39
2023-05-10T05:53:56.795Z,168.22
2023-05-10T05:54:56.789Z,172.31
2023-05-10T05:55:56.803Z,173.28
2023-05-10T05:56:57.328Z,178.65
2023-05-10T05:57:56.780Z,159.03
2023-05-10T05:58:56.793Z,144.13
2023-05-10T05:59:56.862Z,122.75
2023-05-10T06:00:56.828Z,110.68
2023-05-10T06:01:57.022Z,89.90
2023-05-10T06:02:57.002Z,81.62
2023-05-10T06:03:57.010Z,84.40
2023-05-10T06:04:57.006Z,87.26
2023-05-10T06:05:57.086Z,94.39
2023-05-10T06:06:57.129Z,113.96
2023-05-10T06:07:57.127Z,136.96
2023-05-10T06:08:57.135Z,119.15
2023-05-10T06:09:57.213Z,114.05
2023-05-10T06:10:57.262Z,110.97
2023-05-10T06:11:57.321Z,114.16
2023-05-10T06:12:57.375Z,126.82
2023-05-10T06:13:57.389Z,148.74
2023-05-10T06:14:57.500Z,176.00
2023-05-10T06:15:57.499Z,185.56
2023-05-10T06:16:58.080Z,197.08
2023-05-10T06:17:57.721Z,200.10
2023-05-10T06:18:57.827Z,195.05
2023-05-10T06:19:57.665Z,189.22
2023-05-10T06:20:57.732Z,185.51
2023-05-10T06:21:57.742Z,182.51
2023-05-10T06:22:57.769Z,188.73
2023-05-10T06:23:57.818Z,205.88
2023-05-10T06:24:57.866Z,211.79
2023-05-10T06:25:57.896Z,206.75
2023-05-10T06:26:57.929Z,198.53
2023-05-10T06:27:57.977Z,189.59
2023-05-10T06:28:58.964Z,176.81
2023-05-10T06:30:09.258Z,170.30
2023-05-10T06:30:59.114Z,170.38
2023-05-10T06:31:58.326Z,171.35
2023-05-10T06:32:58.254Z,173.22
2023-05-10T06:33:58.009Z,175.49
2023-05-10T06:34:58.070Z,172.61
2023-05-10T06:35:58.020Z,165.81
2023-05-10T06:36:58.102Z,165.32
2023-05-10T06:37:58.008Z,176.08
2023-05-10T06:38:58.056Z,171.81
2023-05-10T06:39:58.485Z,174.04
2023-05-10T06:40:57.987Z,171.22
2023-05-10T06:41:57.969Z,167.43
2023-05-10T06:42:58.008Z,179.65
2023-05-10T06:43:57.986Z,180.99
2023-05-10T06:44:58.483Z,180.34
2023-05-10T06:45:58.115Z,189.23
2023-05-10T06:46:58.034Z,202.50
2023-05-10T06:47:58.110Z,213.63
2023-05-10T06:48:58.081Z,205.76
2023-05-10T06:49:58.106Z,206.03
2023-05-10T06:50:58.123Z,215.35
2023-05-10T06:51:59.009Z,199.91
2023-05-10T06:52:58.157Z,194.30
2023-05-10T06:53:59.113Z,189.80
2023-05-10T06:54:58.223Z,183.05
2023-05-10T06:55:58.231Z,176.70
2023-05-10T06:56:58.205Z,167.15
2023-05-10T06:57:58.191Z,158.58
2023-05-10T06:58:58.512Z,158.80
2023-05-10T06:59:58.237Z,161.32
2023-05-10T07:00:58.447Z,151.43
2023-05-10T07:01:58.362Z,145.58
2023-05-10T07:02:59.369Z,144.11
2023-05-10T07:03:58.409Z,140.33
2023-05-10T07:05:00.861Z,146.52
2023-05-10T07:05:58.422Z,145.93
2023-05-10T07:06:58.393Z,147.46
2023-05-10T07:07:58.252Z,152.02
2023-05-10T07:08:58.323Z,167.85
2023-05-10T07:09:58.279Z,194.19
2023-05-10T07:10:58.352Z,203.14
2023-05-10T07:11:58.222Z,207.36
2023-05-10T07:12:58.388Z,189.35
2023-05-10T07:13:58.251Z,175.25
2023-05-10T07:14:58.227Z,185.18
2023-05-10T07:15:58.222Z,192.87
2023-05-10T07:16:58.266Z,193.70
2023-05-10T07:17:58.306Z,194.70
2023-05-10T07:18:58.217Z,191.22
2023-05-10T07:19:58.981Z,191.72
2023-05-10T07:20:58.203Z,185.04
2023-05-10T07:21:58.163Z,182.05
2023-05-10T07:22:58.172Z,161.02
2023-05-10T07:23:58.153Z,133.10
2023-05-10T07:24:58.994Z,123.93
2023-05-10T07:25:58.179Z,111.61
2023-05-10T07:26:58.153Z,114.80
2023-05-10T07:27:58.122Z,122.86
2023-05-10T07:28:58.190Z,142.58
2023-05-10T07:29:58.159Z,137.70
2023-05-10T07:30:58.262Z,133.89
2023-05-10T07:31:59.079Z,146.11
2023-05-10T07:32:59.075Z,134.33
2023-05-10T07:33:58.446Z,111.92
2023-05-10T07:34:58.505Z,83.52
2023-05-10T07:35:58.362Z,79.78
2023-05-10T07:36:58.369Z,79.79
2023-05-10T07:37:58.490Z,77.32
2023-05-10T07:38:58.484Z,80.97
2023-05-10T07:39:58.568Z,70.99
2023-05-10T07:40:58.548Z,60.98
2023-05-10T07:41:58.584Z,68.14
2023-05-10T07:42:58.584Z,58.60
2023-05-10T07:43:58.689Z,52.81
2023-05-10T07:44:58.684Z,45.20
2023-05-10T07:45:58.946Z,38.99
2023-05-10T07:46:58.713Z,39.30
2023-05-10T07:47:58.827Z,37.78
2023-05-10T07:48:58.751Z,43.34
2023-05-10T07:49:59.008Z,48.51
2023-05-10T07:50:58.808Z,46.43
2023-05-10T07:51:58.909Z,37.42
2023-05-10T07:52:59.089Z,63.29
2023-05-10T07:53:58.916Z,52.19
2023-05-10T07:54:59.008Z,50.11
2023-05-10T07:55:58.953Z,56.19
2023-05-10T07:56:59.011Z,76.24
2023-05-10T07:57:59.027Z,74.87
2023-05-10T07:58:59.019Z,69.37
2023-05-10T07:59:59.069Z,72.58
2023-05-10T08:00:59.089Z,72.82
2023-05-10T08:01:59.093Z,83.24
2023-05-10T08:02:59.243Z,90.01
2023-05-10T08:03:59.231Z,89.74
2023-05-10T08:04:59.243Z,78.95
2023-05-10T08:05:59.215Z,82.76
2023-05-10T08:06:59.267Z,91.92
2023-05-10T08:07:59.302Z,99.36
2023-05-10T08:08:59.348Z,96.01
2023-05-10T08:09:59.503Z,61.36
2023-05-10T08:10:59.434Z,75.37
2023-05-10T08:11:59.481Z,80.74
2023-05-10T08:12:59.543Z,80.19
2023-05-10T08:13:59.624Z,83.70
2023-05-10T08:14:59.686Z,91.27
2023-05-10T08:15:59.687Z,86.79
2023-05-10T08:16:59.742Z,57.31
2023-05-10T08:17:59.835Z,50.36
2023-05-10T08:18:59.900Z,60.96
2023-05-10T08:20:00.017Z,57.99
2023-05-10T08:20:59.856Z,47.59
2023-05-10T08:21:59.886Z,47.79
2023-05-10T08:22:59.968Z,48.47
2023-05-10T08:24:00.553Z,52.89
2023-05-10T08:25:00.043Z,67.67
2023-05-10T08:26:00.050Z,71.93
2023-05-10T08:27:00.137Z,80.77
2023-05-10T08:28:00.195Z,103.22
2023-05-10T08:29:00.373Z,98.23
2023-05-10T08:30:00.238Z,85.49
2023-05-10T08:31:00.540Z,83.49
2023-05-10T08:32:00.375Z,88.33
2023-05-10T08:33:00.559Z,97.46
2023-05-10T08:34:00.466Z,112.30
2023-05-10T08:35:00.567Z,102.53
2023-05-10T08:36:00.520Z,96.53
2023-05-10T08:37:00.576Z,87.91
2023-05-10T08:38:00.617Z,95.98
2023-05-10T08:39:00.697Z,95.30
2023-05-10T08:40:00.773Z,100.02
2023-05-10T08:41:00.850Z,98.17
2023-05-10T08:42:00.926Z,76.44
2023-05-10T08:43:00.838Z,78.20
2023-05-10T08:44:00.917Z,88.86
2023-05-10T08:45:00.992Z,95.13
2023-05-10T08:46:01.069Z,108.44
2023-05-10T08:47:01.044Z,131.04
2023-05-10T08:48:01.055Z,128.09
2023-05-10T08:49:02.999Z,120.63
2023-05-10T08:50:01.621Z,104.39
2023-05-10T08:51:02.025Z,116.38
2023-05-10T08:52:01.111Z,120.54
2023-05-10T08:53:01.141Z,129.85
2023-05-10T08:54:02.096Z,153.99
2023-05-10T08:55:01.524Z,142.51
2023-05-10T08:56:01.346Z,110.40
2023-05-10T08:57:01.316Z,108.01
2023-05-10T08:58:01.379Z,94.33
2023-05-10T08:59:01.466Z,86.57
2023-05-10T09:00:01.552Z,83.74
2023-05-10T09:01:01.460Z,85.46
2023-05-10T09:02:01.517Z,87.05
2023-05-10T09:03:01.585Z,90.26
2023-05-10T09:04:01.608Z,92.17
2023-05-10T09:05:01.725Z,99.68
2023-05-10T09:06:01.665Z,104.52
2023-05-10T09:07:01.861Z,111.02
2023-05-10T09:08:01.884Z,119.46
2023-05-10T09:09:01.999Z,91.96
2023-05-10T09:10:02.010Z,88.95
2023-05-10T09:11:01.780Z,80.92
2023-05-10T09:12:01.807Z,66.39
2023-05-10T09:13:01.867Z,76.59
2023-05-10T09:14:01.922Z,75.44
2023-05-10T09:15:01.896Z,77.40
2023-05-10T09:16:09.797Z,90.68
2023-05-10T09:17:02.924Z,90.70
2023-05-10T09:18:01.912Z,90.63
2023-05-10T09:19:01.862Z,86.73
2023-05-10T09:20:01.925Z,89.59
2023-05-10T09:21:01.864Z,96.31
2023-05-10T09:22:01.845Z,98.68
2023-05-10T09:23:01.860Z,99.28
2023-05-10T09:24:01.808Z,101.43
2023-05-10T09:25:01.796Z,112.73
2023-05-10T09:26:02.152Z,123.35
2023-05-10T09:27:01.909Z,119.01
2023-05-10T09:28:01.780Z,111.36
2023-05-10T09:29:01.764Z,117.97
2023-05-10T09:30:01.788Z,116.80
2023-05-10T09:31:01.830Z,115.62
2023-05-10T09:32:01.757Z,117.96
2023-05-10T09:33:01.866Z,142.77
2023-05-10T09:34:01.797Z,132.24
2023-05-10T09:35:01.818Z,114.23
2023-05-10T09:36:02.541Z,118.54
2023-05-10T09:37:01.951Z,119.46
2023-05-10T09:38:01.947Z,112.13
2023-05-10T09:39:01.998Z,100.55
2023-05-10T09:40:02.040Z,105.87
2023-05-10T09:41:02.099Z,101.40
2023-05-10T09:42:02.043Z,93.67
2023-05-10T09:43:02.085Z,84.92
2023-05-10T09:44:02.128Z,85.20
2023-05-10T09:45:02.170Z,86.39
2023-05-10T09:46:03.052Z,77.68
2023-05-10T09:47:02.202Z,75.05
2023-05-10T09:48:02.338Z,70.78
2023-05-10T09:49:02.343Z,71.47
2023-05-10T09:50:02.461Z,82.24
2023-05-10T09:51:02.620Z,105.46
2023-05-10T09:52:03.146Z,116.44
2023-05-10T09:53:02.401Z,145.74
2023-05-10T09:54:03.091Z,249.48
2023-05-10T09:55:02.539Z,229.91
2023-05-10T09:56:02.517Z,150.71
2023-05-10T09:57:02.535Z,104.21
2023-05-10T09:58:02.598Z,81.40
2023-05-10T09:59:02.566Z,73.34
2023-05-10T10:00:02.603Z,53.34
2023-05-10T10:01:02.669Z,44.37
2023-05-10T10:02:02.757Z,59.78
2023-05-10T10:03:02.790Z,94.85
2023-05-10T10:04:02.672Z,83.07
2023-05-10T10:05:02.850Z,76.90
2023-05-10T10:06:02.812Z,65.95
2023-05-10T10:07:02.779Z,46.93
2023-05-10T10:08:02.822Z,26.34
2023-05-10T10:09:02.902Z,22.02
2023-05-10T10:10:02.951Z,23.14
2023-05-10T10:11:04.576Z,29.54
2023-05-10T10:12:03.026Z,52.07
2023-05-10T10:13:02.941Z,53.39
2023-05-10T10:14:02.983Z,58.18
2023-05-10T10:15:02.992Z,63.67
2023-05-10T10:16:03.045Z,70.78
2023-05-10T10:17:07.384Z,70.58
2023-05-10T10:18:04.105Z,70.71
2023-05-10T10:19:03.248Z,68.95
2023-05-10T10:20:03.033Z,77.22
2023-05-10T10:21:03.554Z,88.27
2023-05-10T10:22:03.010Z,93.21
2023-05-10T10:23:03.569Z,93.36
2023-05-10T10:24:03.061Z,77.70
2023-05-10T10:25:03.013Z,86.65
2023-05-10T10:26:03.033Z,83.92
2023-05-10T10:27:02.998Z,81.43
2023-05-10T10:28:03.012Z,78.20
2023-05-10T10:29:03.192Z,85.14
2023-05-10T10:30:03.006Z,83.77
2023-05-10T10:31:03.050Z,82.55
2023-05-10T10:32:02.968Z,95.90
2023-05-10T10:33:10.120Z,101.77
2023-05-10T10:34:04.206Z,92.02
2023-05-10T10:35:03.561Z,87.17
2023-05-10T10:36:02.950Z,67.21
2023-05-10T10:37:03.139Z,63.93
2023-05-10T10:38:02.944Z,52.48
2023-05-10T10:39:03.054Z,52.56
2023-05-10T10:40:02.929Z,43.60
2023-05-10T10:41:02.967Z,45.76
2023-05-10T10:42:02.921Z,48.76
2023-05-10T10:43:02.900Z,49.42
2023-05-10T10:44:02.908Z,60.91
2023-05-10T10:45:02.977Z,65.09
2023-05-10T10:46:03.040Z,71.75
2023-05-10T10:47:03.268Z,57.59
2023-05-10T10:48:03.243Z,53.03
2023-05-10T10:49:03.256Z,55.44
2023-05-10T10:50:03.220Z,70.08
2023-05-10T10:51:03.294Z,94.66
2023-05-10T10:52:03.356Z,109.26
2023-05-10T10:53:03.443Z,102.44
2023-05-10T10:54:03.396Z,61.96
2023-05-10T10:55:03.421Z,49.49
2023-05-10T10:56:03.500Z,32.57
2023-05-10T10:57:03.599Z,21.06
2023-05-10T10:58:03.570Z,13.83
2023-05-10T10:59:03.595Z,13.10
2023-05-10T11:00:03.609Z,10.79
2023-05-10T11:01:03.693Z,25.38
2023-05-10T11:02:03.748Z,30.63
2023-05-10T11:03:03.807Z,42.90
2023-05-10T11:04:03.904Z,46.32
2023-05-10T11:05:03.857Z,94.45
2023-05-10T11:06:03.930Z,118.87
2023-05-10T11:07:04.091Z,115.52
2023-05-10T11:08:04.027Z,118.09
2023-05-10T11:09:04.231Z,122.54
2023-05-10T11:10:04.104Z,110.91
2023-05-10T11:11:04.209Z,97.54
2023-05-10T11:12:04.405Z,85.90
2023-05-10T11:13:04.342Z,91.68
2023-05-10T11:14:04.348Z,99.61
2023-05-10T11:15:04.348Z,115.73
2023-05-10T11:16:04.486Z,125.98
2023-05-10T11:17:04.539Z,137.42
2023-05-10T11:18:04.552Z,136.58
2023-05-10T11:19:04.629Z,115.56
2023-05-10T11:20:04.554Z,110.79
2023-05-10T11:21:04.615Z,83.03
2023-05-10T11:22:04.646Z,41.65
2023-05-10T11:23:04.669Z,28.00
2023-05-10T11:24:04.729Z,25.00
2023-05-10T11:25:04.828Z,25.00
2023-05-10T11:26:04.873Z,108.97
2023-05-10T11:27:04.875Z,156.99
2023-05-10T11:28:04.908Z,103.12
2023-05-10T11:29:05.009Z,65.06
2023-05-10T11:30:05.173Z,27.05
2023-05-10T11:31:05.287Z,20.97
2023-05-10T11:32:05.185Z,25.27
2023-05-10T11:33:05.211Z,23.69
2023-05-10T11:34:06.075Z,38.12
2023-05-10T11:35:05.201Z,28.44
2023-05-10T11:36:05.202Z,31.67
2023-05-10T11:37:05.262Z,30.80
2023-05-10T11:38:05.273Z,24.08
2023-05-10T11:39:05.312Z,16.06
2023-05-10T11:40:05.281Z,27.83
2023-05-10T11:41:05.352Z,44.97
2023-05-10T11:42:05.414Z,60.12
2023-05-10T11:43:05.450Z,72.54
2023-05-10T11:44:05.550Z,73.35
2023-05-10T11:45:05.585Z,80.85
2023-05-10T11:46:05.608Z,54.63
2023-05-10T11:47:05.620Z,29.09
2023-05-10T11:48:05.664Z,27.80
2023-05-10T11:49:05.856Z,15.60
2023-05-10T11:50:05.585Z,37.44
2023-05-10T11:51:05.631Z,47.59
2023-05-10T11:52:05.626Z,57.76
2023-05-10T11:53:05.639Z,56.62
2023-05-10T11:54:05.659Z,36.81
2023-05-10T11:55:05.707Z,18.44
2023-05-10T11:56:05.725Z,18.32
2023-05-10T11:57:05.783Z,30.77
2023-05-10T11:58:05.808Z,36.99
2023-05-10T11:59:05.855Z,49.11
2023-05-10T12:00:05.821Z,66.21
2023-05-10T12:01:05.832Z,57.11
2023-05-10T12:02:05.913Z,50.46
2023-05-10T12:03:06.014Z,45.56
2023-05-10T12:04:06.225Z,32.82
2023-05-10T12:05:06.110Z,46.64
2023-05-10T12:06:06.139Z,66.37
2023-05-10T12:07:06.084Z,45.86
2023-05-10T12:08:06.125Z,23.20
2023-05-10T12:09:06.173Z,9.81
2023-05-10T12:10:06.215Z,20.93
2023-05-10T12:11:06.286Z,25.00
2023-05-10T12:12:06.249Z,16.14
2023-05-10T12:13:06.318Z,23.80
2023-05-10T12:14:06.341Z,28.59
2023-05-10T12:15:06.352Z,42.80
2023-05-10T12:16:06.431Z,41.85
2023-05-10T12:17:06.460Z,28.24
2023-05-10T12:18:06.489Z,22.82
2023-05-10T12:19:06.686Z,26.12
2023-05-10T12:20:06.599Z,21.64
2023-05-10T12:21:06.668Z,19.96
2023-05-10T12:22:07.094Z,20.97
2023-05-10T12:23:06.715Z,22.72
2023-05-10T12:24:06.724Z,28.65
2023-05-10T12:25:06.867Z,30.82
2023-05-10T12:26:06.825Z,42.30
2023-05-10T12:27:06.865Z,34.85
2023-05-10T12:28:06.907Z,36.49
2023-05-10T12:29:06.936Z,40.49
2023-05-10T12:30:06.960Z,52.22
2023-05-10T12:31:07.053Z,48.91
2023-05-10T12:32:07.121Z,55.58
2023-05-10T12:33:07.197Z,57.91
2023-05-10T12:34:07.219Z,45.84
2023-05-10T12:35:07.234Z,49.87
2023-05-10T12:36:07.331Z,46.53
2023-05-10T12:37:07.341Z,58.58
2023-05-10T12:38:07.445Z,66.85
2023-05-10T12:39:07.433Z,59.60
2023-05-10T12:40:07.442Z,65.07
2023-05-10T12:41:07.563Z,58.04
2023-05-10T12:42:08.091Z,68.13
2023-05-10T12:43:07.595Z,70.86
2023-05-10T12:44:08.131Z,69.26
2023-05-10T12:45:07.735Z,67.77
2023-05-10T12:46:08.018Z,72.77
2023-05-10T12:47:07.785Z,77.18
2023-05-10T12:48:07.900Z,68.58
2023-05-10T12:49:09.790Z,68.99
2023-05-10T12:50:07.941Z,67.86
2023-05-10T12:51:08.106Z,69.41
2023-05-10T12:52:08.035Z,69.38
2023-05-10T12:53:08.085Z,64.10